Time;durP1;ratioP1;P1;durP2;ratioP2;P2;SDS_P1;SDS_P2;PMS_P1;PMS_P2;Temp;Humidity;BMP_temperature;BMP_pressure;BME280_temperature;BME280_humidity;BME280_pressure;Samples;Min_cycle;Max_cycle;Signal;HPM_P1;HPM_P2
2024/02/03 00:00:08;;;;;;;21.02;15.95;;;;;;;0.07;76.16;94207.09;523344;28;1090;-62
2024/02/03 00:00:24;;;;;;;22.42;16.50;;;;;;;0.07;75.93;94207.09;523406;28;964;-62
2024/02/03 00:00:39;;;;;;;22.25;16.30;;;;;;;0.06;75.89;94200.94;523291;28;1122;-62
2024/02/03 00:00:55;;;;;;;20.70;15.02;;;;;;;0.05;75.80;94202.16;523318;28;1220;-62
2024/02/03 00:01:10;;;;;;;21.57;15.10;;;;;;;0.03;75.72;94209.25;523319;28;1126;-62
2024/02/03 00:01:27;;;;;;;22.10;15.60;;;;;;;-0.01;75.58;94210.19;523299;28;1161;-62
2024/02/03 00:01:43;;;;;;;22.55;15.93;;;;;;;-0.02;75.59;94214.09;523331;28;1217;-62
2024/02/03 00:01:58;;;;;;;21.92;15.40;;;;;;;-0.05;75.58;94200.72;523269;28;1319;-62
2024/02/03 00:02:13;;;;;;;21.17;15.13;;;;;;;-0.07;75.47;94203.91;523447;28;1090;-62
2024/02/03 00:02:29;;;;;;;21.88;15.30;;;;;;;-0.08;75.53;94207.81;523352;28;1201;-62
2024/02/03 00:02:45;;;;;;;21.63;15.30;;;;;;;-0.08;75.55;94204.34;523412;28;1136;-62
2024/02/03 00:03:01;;;;;;;21.40;15.20;;;;;;;-0.08;75.68;94215.97;523337;28;1086;-62
2024/02/03 00:03:17;;;;;;;20.65;15.02;;;;;;;-0.08;75.47;94210.53;523323;28;1079;-62
2024/02/03 00:03:32;;;;;;;21.30;14.57;;;;;;;-0.06;75.64;94212.78;523324;28;1161;-62
2024/02/03 00:03:48;;;;;;;20.00;13.53;;;;;;;-0.05;75.52;94211.56;523399;28;1135;-63
2024/02/03 00:04:03;;;;;;;18.35;13.68;;;;;;;-0.05;75.38;94215.03;523807;28;1088;-62
2024/02/03 00:04:19;;;;;;;20.50;14.15;;;;;;;-0.03;75.29;94207.19;523147;28;1130;-62
2024/02/03 00:04:36;;;;;;;20.77;13.80;;;;;;;0.01;75.19;94207.00;523357;28;1165;-62
2024/02/03 00:04:52;;;;;;;18.85;14.00;;;;;;;0.02;75.26;94210.47;524522;28;1222;-62
2024/02/03 00:05:07;;;;;;;18.80;13.97;;;;;;;0.04;75.08;94216.19;525361;28;1129;-62
2024/02/03 00:05:23;;;;;;;18.30;13.27;;;;;;;0.05;75.17;94206.81;525397;28;1149;-62
2024/02/03 00:05:40;;;;;;;17.70;13.77;;;;;;;0.05;74.79;94214.97;524448;28;1006;-62
2024/02/03 00:05:55;;;;;;;17.35;13.60;;;;;;;0.03;74.82;94212.72;523143;28;1231;-63
2024/02/03 00:06:11;;;;;;;17.83;13.07;;;;;;;-0.02;74.65;94205.97;523348;28;1117;-62
2024/02/03 00:06:26;;;;;;;17.77;13.20;;;;;;;-0.07;74.62;94205.84;523212;28;1910;-62
2024/02/03 00:06:42;;;;;;;17.10;13.10;;;;;;;-0.15;74.53;94202.72;523356;28;1007;-62
2024/02/03 00:06:57;;;;;;;15.37;12.53;;;;;;;-0.21;74.65;94204.56;523251;28;1071;-62
2024/02/03 00:07:13;;;;;;;16.17;12.65;;;;;;;-0.27;75.15;94203.72;522807;28;1172;-62
2024/02/03 00:07:28;;;;;;;18.73;12.50;;;;;;;-0.37;75.12;94196.81;523247;28;1039;-62
2024/02/03 00:07:44;;;;;;;17.25;11.98;;;;;;;-0.40;75.38;94203.16;523281;28;995;-62
2024/02/03 00:07:59;;;;;;;16.00;11.70;;;;;;;-0.45;75.62;94203.78;523366;28;1126;-62
2024/02/03 00:08:15;;;;;;;17.33;12.10;;;;;;;-0.51;75.87;94197.50;523238;28;1145;-62
2024/02/03 00:08:30;;;;;;;17.10;12.23;;;;;;;-0.55;75.65;94198.88;523251;28;1011;-62
2024/02/03 00:08:45;;;;;;;16.33;11.60;;;;;;;-0.57;75.88;94204.75;523397;28;1082;-62
2024/02/03 00:09:02;;;;;;;15.57;11.40;;;;;;;-0.57;75.98;94206.72;523363;28;1054;-61
2024/02/03 00:09:18;;;;;;;15.45;11.55;;;;;;;-0.61;76.54;94203.41;523209;28;1102;-62
2024/02/03 00:09:33;;;;;;;16.27;11.83;;;;;;;-0.69;76.16;94199.53;523388;28;1106;-62
2024/02/03 00:09:49;;;;;;;14.80;11.10;;;;;;;-0.74;76.57;94198.19;523229;28;1114;-62
2024/02/03 00:10:05;;;;;;;13.88;10.85;;;;;;;-0.72;76.48;94198.50;523426;28;1180;-62
2024/02/03 00:10:20;;;;;;;16.90;11.82;;;;;;;-0.68;76.66;94203.75;522363;28;1418;-62
2024/02/03 00:10:36;;;;;;;18.87;12.50;;;;;;;-0.66;76.62;94202.09;523535;28;876;-62
2024/02/03 00:10:52;;;;;;;18.60;13.70;;;;;;;-0.65;76.59;94192.72;521579;28;828;-62
2024/02/03 00:11:08;;;;;;;21.07;14.30;;;;;;;-0.64;76.77;94198.91;525561;28;1154;-62
2024/02/03 00:11:24;;;;;;;22.02;14.13;;;;;;;-0.65;76.96;94200.84;521458;28;1070;-62
2024/02/03 00:11:40;;;;;;;21.63;14.35;;;;;;;-0.64;76.92;94193.47;523623;28;832;-62
2024/02/03 00:11:55;;;;;;;21.07;14.23;;;;;;;-0.61;77.01;94196.03;523220;28;788;-62
2024/02/03 00:12:11;;;;;;;21.38;14.45;;;;;;;-0.59;77.07;94199.03;523422;28;1253;-62
2024/02/03 00:12:28;;;;;;;20.23;13.98;;;;;;;-0.58;77.10;94195.09;525644;28;907;-62
2024/02/03 00:12:47;;;;;;;19.45;13.38;;;;;;;-0.57;76.92;94199.34;525614;28;859;-62
2024/02/03 00:13:02;;;;;;;18.83;13.23;;;;;;;-0.57;76.98;94199.34;521632;28;1153;-62
2024/02/03 00:13:18;;;;;;;20.80;13.77;;;;;;;-0.55;76.91;94196.91;523794;28;1106;-62
2024/02/03 00:13:33;;;;;;;21.40;13.98;;;;;;;-0.54;76.70;94195.69;523896;28;1162;-62
2024/02/03 00:13:49;;;;;;;20.77;13.77;;;;;;;-0.51;76.86;94197.50;523687;28;1169;-62
2024/02/03 00:14:05;;;;;;;24.98;14.43;;;;;;;-0.48;76.76;94199.31;523759;28;1095;-62
2024/02/03 00:14:20;;;;;;;24.70;13.83;;;;;;;-0.46;76.73;94196.88;523677;28;1135;-62
2024/02/03 00:14:36;;;;;;;21.25;13.32;;;;;;;-0.44;76.84;94196.41;524011;28;812;-62
2024/02/03 00:14:52;;;;;;;20.90;13.30;;;;;;;-0.41;76.64;94195.50;523891;28;1217;-63
2024/02/03 00:15:08;;;;;;;21.65;13.50;;;;;;;-0.38;76.49;94192.59;526215;28;1182;-62
2024/02/03 00:15:25;;;;;;;21.38;13.77;;;;;;;-0.34;76.40;94195.16;526192;28;859;-62
2024/02/03 00:15:40;;;;;;;19.05;13.20;;;;;;;-0.31;76.29;94191.53;526082;28;999;-62
2024/02/03 00:15:56;;;;;;;18.93;12.63;;;;;;;-0.29;76.21;94197.22;526005;28;1134;-62
2024/02/03 00:16:12;;;;;;;18.80;12.53;;;;;;;-0.28;75.90;94191.34;522154;28;764;-62
2024/02/03 00:16:27;;;;;;;19.40;13.13;;;;;;;-0.28;75.81;94190.63;522230;28;796;-62
2024/02/03 00:16:43;;;;;;;20.80;13.70;;;;;;;-0.28;75.72;94191.34;523846;28;1246;-62
2024/02/03 00:16:58;;;;;;;21.00;13.43;;;;;;;-0.26;75.75;94191.63;523845;28;1131;-62
2024/02/03 00:17:14;;;;;;;21.43;12.97;;;;;;;-0.44;75.43;94164.63;523945;28;1170;-62
2024/02/03 00:17:30;;;;;;;18.23;12.60;;;;;;;-0.21;75.37;94190.25;523996;28;1106;-62
2024/02/03 00:17:45;;;;;;;17.02;12.25;;;;;;;-0.20;75.39;94189.81;523941;28;1055;-62
2024/02/03 00:18:01;;;;;;;17.43;11.83;;;;;;;-0.17;75.17;94196.25;523930;28;1260;-63
2024/02/03 00:18:16;;;;;;;17.02;12.35;;;;;;;-0.17;75.16;94196.25;523861;28;1130;-62
2024/02/03 00:18:33;;;;;;;20.03;13.30;;;;;;;-0.16;74.98;94190.38;523942;28;1071;-62
2024/02/03 00:18:48;;;;;;;21.33;13.13;;;;;;;-0.14;74.90;94190.66;523885;28;1083;-62
2024/02/03 00:19:04;;;;;;;18.60;12.47;;;;;;;-0.15;74.58;94197.28;523997;28;1129;-62
2024/02/03 00:19:19;;;;;;;17.33;11.98;;;;;;;-0.16;74.54;94189.63;523866;28;1130;-63
2024/02/03 00:19:35;;;;;;;18.67;12.57;;;;;;;-0.16;74.54;94195.81;523855;28;1130;-62
2024/02/03 00:19:53;;;;;;;18.70;12.77;;;;;;;-0.16;74.58;94192.34;523871;28;1090;-62
2024/02/03 00:20:10;;;;;;;18.25;12.00;;;;;;;-0.15;74.60;94194.59;523872;28;1170;-62
2024/02/03 00:20:25;;;;;;;18.40;12.18;;;;;;;-0.15;74.61;94191.88;523937;28;1166;-62
2024/02/03 00:20:41;;;;;;;18.37;13.10;;;;;;;-0.14;74.75;94187.19;523879;28;1227;-62
2024/02/03 00:20:56;;;;;;;18.70;13.02;;;;;;;-0.10;74.26;94204.81;523937;28;944;-62
2024/02/03 00:21:12;;;;;;;18.45;12.07;;;;;;;-0.09;74.27;94198.16;523908;28;920;-62
2024/02/03 00:21:27;;;;;;;18.33;12.13;;;;;;;-0.06;74.30;94193.78;523981;28;1134;-62
2024/02/03 00:21:43;;;;;;;19.17;12.48;;;;;;;-0.07;74.19;94193.03;523927;28;995;-61
2024/02/03 00:21:58;;;;;;;17.73;12.17;;;;;;;-0.05;74.21;94204.19;523934;28;1141;-62
2024/02/03 00:22:14;;;;;;;14.85;11.60;;;;;;;-0.05;74.02;94193.31;523841;28;1094;-62
2024/02/03 00:22:31;;;;;;;14.45;10.95;;;;;;;-0.02;74.01;94200.53;523935;28;1102;-62
2024/02/03 00:22:51;;;;;;;15.18;11.25;;;;;;;-0.01;74.23;94199.34;523909;28;1154;-62
2024/02/03 00:23:06;;;;;;;13.88;10.85;;;;;;;-0.03;74.36;94193.63;523919;28;1107;-63
2024/02/03 00:23:22;;;;;;;15.17;10.87;;;;;;;0.01;73.86;94198.84;523947;28;1086;-62
2024/02/03 00:23:37;;;;;;;16.63;10.70;;;;;;;0.02;74.04;94194.19;523956;28;1138;-63
2024/02/03 00:23:53;;;;;;;14.88;10.50;;;;;;;0.02;74.06;94199.63;523893;28;1091;-62
2024/02/03 00:24:09;;;;;;;13.30;10.90;;;;;;;0.02;73.62;94200.38;523873;28;1227;-63
2024/02/03 00:24:25;;;;;;;13.07;10.75;;;;;;;0.02;73.96;94205.06;523832;28;1188;-63
2024/02/03 00:24:41;;;;;;;15.75;10.95;;;;;;;0.04;73.81;94202.63;523969;28;1245;-63
2024/02/03 00:24:56;;;;;;;16.33;10.80;;;;;;;0.05;73.88;94204.09;523811;28;1116;-63
2024/02/03 00:25:12;;;;;;;13.07;10.23;;;;;;;0.05;73.65;94196.72;523882;28;1079;-63
2024/02/03 00:25:27;;;;;;;13.93;10.57;;;;;;;0.05;73.64;94195.97;523877;28;1000;-63
2024/02/03 00:25:43;;;;;;;14.57;11.02;;;;;;;0.05;73.51;94195.97;523989;28;1106;-63
2024/02/03 00:25:58;;;;;;;13.90;10.80;;;;;;;0.05;73.57;94204.09;523914;28;992;-63
2024/02/03 00:26:14;;;;;;;13.20;10.27;;;;;;;0.06;73.40;94200.19;523905;28;1177;-63
2024/02/03 00:26:30;;;;;;;11.80;10.00;;;;;;;0.05;73.36;94196.72;523827;28;1177;-63
2024/02/03 00:26:45;;;;;;;13.00;9.87;;;;;;;0.07;73.54;94201.69;523940;28;1130;-63
2024/02/03 00:27:02;;;;;;;14.67;9.97;;;;;;;0.08;73.45;94200.47;523887;28;1146;-63
2024/02/03 00:27:18;;;;;;;13.18;9.98;;;;;;;0.08;73.11;94208.63;523886;28;1299;-63
2024/02/03 00:27:33;;;;;;;14.20;10.57;;;;;;;0.08;73.09;94203.19;523841;28;1144;-63
2024/02/03 00:27:49;;;;;;;16.00;10.70;;;;;;;0.09;73.11;94202.72;523712;28;1157;-63
2024/02/03 00:28:04;;;;;;;15.17;10.80;;;;;;;0.09;72.92;94204.72;523958;28;1117;-63
2024/02/03 00:28:20;;;;;;;14.10;10.48;;;;;;;0.10;73.05;94201.53;523883;28;1067;-63
2024/02/03 00:28:35;;;;;;;14.00;10.47;;;;;;;0.11;72.86;94207.72;523956;28;1177;-63
2024/02/03 00:28:54;;;;;;;15.57;10.65;;;;;;;0.08;72.85;94206.66;523903;28;1075;-63
2024/02/03 00:29:09;;;;;;;14.73;10.48;;;;;;;0.08;72.58;94209.38;523815;28;995;-63
2024/02/03 00:29:25;;;;;;;14.85;10.77;;;;;;;0.08;72.46;94197.75;523844;28;1098;-63
2024/02/03 00:29:40;;;;;;;15.67;11.03;;;;;;;0.06;72.83;94205.63;523789;28;1098;-63
2024/02/03 00:29:55;;;;;;;14.05;10.52;;;;;;;0.07;72.65;94204.38;523904;28;1015;-63
2024/02/03 00:30:11;;;;;;;14.70;10.83;;;;;;;0.05;72.78;94202.16;523892;28;1102;-63
2024/02/03 00:30:27;;;;;;;16.33;11.43;;;;;;;0.04;72.27;94197.94;524720;28;1109;-63
2024/02/03 00:30:42;;;;;;;16.73;11.37;;;;;;;0.03;72.27;94203.81;522543;28;1459;-63
2024/02/03 00:30:58;;;;;;;17.27;11.25;;;;;;;0.00;72.22;94203.53;523106;28;1000;-63
2024/02/03 00:31:13;;;;;;;16.23;11.13;;;;;;;-0.02;72.61;94205.97;523866;28;1091;-63
2024/02/03 00:31:29;;;;;;;14.65;11.07;;;;;;;-0.06;72.35;94202.66;523916;28;1074;-63
2024/02/03 00:31:44;;;;;;;14.47;11.00;;;;;;;-0.09;72.21;94203.59;523987;28;1063;-63
2024/02/03 00:32:00;;;;;;;14.43;11.13;;;;;;;-0.13;72.34;94200.28;523788;28;1098;-63
2024/02/03 00:32:15;;;;;;;14.80;11.57;;;;;;;-0.17;72.44;94199.72;523915;28;1110;-62
2024/02/03 00:32:31;;;;;;;13.83;11.43;;;;;;;-0.44;72.22;94163.84;523897;28;1087;-63
2024/02/03 00:32:47;;;;;;;13.20;11.13;;;;;;;-0.22;72.72;94205.78;524002;28;1174;-63
2024/02/03 00:33:02;;;;;;;15.87;11.17;;;;;;;-0.27;72.59;94209.13;523937;28;1086;-63
2024/02/03 00:33:18;;;;;;;16.90;10.95;;;;;;;-0.32;72.88;94204.31;524174;28;831;-63
2024/02/03 00:33:33;;;;;;;17.20;11.83;;;;;;;-0.35;72.83;94205.25;524144;28;970;-63
2024/02/03 00:33:48;;;;;;;17.45;12.52;;;;;;;-0.37;73.32;94206.94;523859;28;1233;-63
2024/02/03 00:34:04;;;;;;;15.90;12.13;;;;;;;-0.38;73.21;94208.13;523920;28;1197;-63
2024/02/03 00:34:19;;;;;;;15.45;11.52;;;;;;;-0.38;73.20;94206.19;523912;28;1208;-63
2024/02/03 00:34:35;;;;;;;15.07;11.60;;;;;;;-0.37;73.09;94207.66;523888;28;1115;-63
2024/02/03 00:34:50;;;;;;;14.25;11.35;;;;;;;-0.38;73.24;94208.88;523800;28;1177;-63
2024/02/03 00:35:06;;;;;;;14.73;10.87;;;;;;;-0.36;73.21;94208.41;523948;28;1160;-63
2024/02/03 00:35:22;;;;;;;17.98;11.88;;;;;;;-0.35;73.28;94205.25;523892;28;1110;-63
2024/02/03 00:35:38;;;;;;;21.38;13.00;;;;;;;-0.32;73.38;94211.72;523951;28;1165;-63
2024/02/03 00:35:54;;;;;;;19.85;13.40;;;;;;;-0.32;73.42;94196.19;523796;28;1141;-63
2024/02/03 00:36:20;;;;;;;17.42;12.73;;;;;;;-0.28;73.13;94207.63;523811;28;1574;-63
2024/02/03 00:36:36;;;;;;;14.85;11.63;;;;;;;-0.28;73.14;94210.34;523978;28;1145;-63
2024/02/03 00:36:51;;;;;;;16.53;11.83;;;;;;;-0.28;72.94;94213.03;523827;28;1145;-63
2024/02/03 00:37:06;;;;;;;17.33;11.82;;;;;;;-0.28;72.97;94204.19;524517;28;992;-63
2024/02/03 00:37:22;;;;;;;18.53;12.70;;;;;;;-0.27;72.91;94201.00;526045;28;1090;-63
2024/02/03 00:37:37;;;;;;;16.75;12.70;;;;;;;-0.29;72.91;94206.13;525895;28;1078;-63
2024/02/03 00:37:53;;;;;;;15.40;11.73;;;;;;;-0.30;73.06;94212.00;525913;28;1090;-63
2024/02/03 00:38:08;;;;;;;17.40;11.63;;;;;;;-0.32;72.95;94209.00;526015;28;1090;-63
2024/02/03 00:38:24;;;;;;;17.63;12.07;;;;;;;-0.33;72.95;94197.41;526040;28;1002;-63
2024/02/03 00:38:39;;;;;;;16.33;12.57;;;;;;;-0.32;72.98;94201.63;525982;28;1200;-63
2024/02/03 00:38:55;;;;;;;19.33;12.93;;;;;;;-0.31;72.99;94205.09;525886;28;1097;-63
2024/02/03 00:39:10;;;;;;;23.00;14.23;;;;;;;-0.35;73.06;94202.56;526002;28;1224;-63
2024/02/03 00:39:26;;;;;;;24.90;18.57;;;;;;;-0.38;73.21;94200.75;526205;28;918;-63
2024/02/03 00:39:42;;;;;;;37.92;28.30;;;;;;;-0.40;73.24;94205.13;522060;28;848;-63
2024/02/03 00:39:57;;;;;;;44.45;31.65;;;;;;;-0.46;73.48;94196.88;523868;28;1174;-63
2024/02/03 00:40:13;;;;;;;40.90;27.80;;;;;;;-0.47;73.49;94202.75;523870;28;1273;-63
2024/02/03 00:40:28;;;;;;;37.50;24.90;;;;;;;-0.49;73.73;94191.59;525853;28;1196;-63
2024/02/03 00:40:44;;;;;;;30.90;21.00;;;;;;;-0.50;73.85;94198.25;526044;28;1145;-63
2024/02/03 00:40:59;;;;;;;23.07;16.17;;;;;;;-0.53;73.93;94202.63;524084;28;1248;-63
2024/02/03 00:41:15;;;;;;;19.85;14.00;;;;;;;-0.56;74.04;94195.41;523841;28;1188;-63
2024/02/03 00:41:31;;;;;;;18.60;13.30;;;;;;;-0.56;74.17;94200.81;523949;28;987;-63
2024/02/03 00:41:46;;;;;;;19.30;13.67;;;;;;;-0.59;74.22;94196.34;525512;28;924;-62
2024/02/03 00:42:02;;;;;;;20.05;14.40;;;;;;;-0.64;74.54;94196.94;525984;28;1082;-63
2024/02/03 00:42:18;;;;;;;20.40;14.77;;;;;;;-0.64;74.84;94199.66;525100;28;1165;-63
2024/02/03 00:42:34;;;;;;;19.80;13.88;;;;;;;-0.66;74.65;94193.94;523867;28;1118;-63
2024/02/03 00:42:50;;;;;;;19.80;13.73;;;;;;;-0.65;74.90;94202.84;523840;28;1082;-63
2024/02/03 00:43:05;;;;;;;20.20;14.60;;;;;;;-0.64;74.76;94205.09;523850;28;1039;-63
2024/02/03 00:43:21;;;;;;;19.07;14.20;;;;;;;-0.60;74.63;94194.06;523960;28;1105;-63
2024/02/03 00:43:36;;;;;;;17.88;14.10;;;;;;;-0.60;74.60;94191.34;523941;28;936;-62
2024/02/03 00:43:52;;;;;;;19.00;14.67;;;;;;;-0.55;74.82;94201.59;523866;28;1185;-63
2024/02/03 00:44:07;;;;;;;19.52;14.93;;;;;;;-0.53;74.54;94191.78;523876;28;1074;-63
2024/02/03 00:44:23;;;;;;;19.23;15.13;;;;;;;-0.49;74.41;94202.44;523810;28;1054;-63
2024/02/03 00:44:38;;;;;;;22.70;16.58;;;;;;;-0.48;74.33;94202.00;523799;28;992;-63
2024/02/03 00:44:54;;;;;;;25.15;17.65;;;;;;;-0.46;74.27;94196.88;523807;28;1102;-63
2024/02/03 00:45:09;;;;;;;24.40;18.40;;;;;;;-0.43;74.12;94201.38;523879;28;1090;-63
2024/02/03 00:45:25;;;;;;;24.65;18.80;;;;;;;-0.41;73.83;94198.22;523957;28;1078;-63
2024/02/03 00:45:41;;;;;;;25.97;18.97;;;;;;;-0.40;73.92;94203.16;522831;28;1352;-63
2024/02/03 00:45:56;;;;;;;26.15;18.45;;;;;;;-0.39;73.40;94199.22;523427;28;1019;-62
2024/02/03 00:46:12;;;;;;;24.23;18.02;;;;;;;-0.39;73.96;94196.53;523850;28;1090;-62
2024/02/03 00:46:27;;;;;;;24.00;18.10;;;;;;;-0.40;73.58;94191.56;523612;28;1914;-63
2024/02/03 00:46:43;;;;;;;24.50;17.93;;;;;;;-0.39;73.51;94198.50;524438;28;1078;-63
2024/02/03 00:46:58;;;;;;;22.13;17.60;;;;;;;-0.38;73.59;94195.31;524695;28;1097;-63
2024/02/03 00:47:14;;;;;;;26.37;17.90;;;;;;;-0.39;73.47;94201.94;523847;28;1094;-63
2024/02/03 00:47:29;;;;;;;27.48;17.77;;;;;;;-0.37;73.57;94196.06;523847;28;1142;-63
2024/02/03 00:47:45;;;;;;;24.08;17.42;;;;;;;-0.38;73.57;94203.47;524108;28;1110;-63
2024/02/03 00:48:00;;;;;;;25.17;17.73;;;;;;;-0.37;73.46;94196.06;525931;28;1189;-63
2024/02/03 00:48:16;;;;;;;23.58;17.25;;;;;;;-0.36;73.51;94198.31;525948;28;1093;-63
2024/02/03 00:48:31;;;;;;;22.77;17.27;;;;;;;-0.36;73.45;94198.31;525974;28;1149;-63
2024/02/03 00:48:47;;;;;;;24.30;17.67;;;;;;;-0.35;73.41;94201.78;526259;28;776;-63
2024/02/03 00:49:02;;;;;;;23.83;17.63;;;;;;;-0.33;73.38;94207.50;522053;28;879;-63
2024/02/03 00:49:18;;;;;;;23.25;16.70;;;;;;;-0.33;73.63;94205.56;523951;28;1338;-63
2024/02/03 00:49:33;;;;;;;25.73;17.17;;;;;;;-0.31;73.44;94205.09;525815;28;1118;-63
2024/02/03 00:49:49;;;;;;;22.70;17.05;;;;;;;-0.30;73.51;94199.19;525852;28;1134;-63
2024/02/03 00:50:05;;;;;;;22.73;17.13;;;;;;;-0.30;73.36;94201.91;524158;28;1169;-62
2024/02/03 00:50:20;;;;;;;23.50;17.50;;;;;;;-0.29;73.18;94198.00;523842;28;1122;-63
2024/02/03 00:50:36;;;;;;;20.20;16.38;;;;;;;-0.29;73.07;94208.84;523879;28;1212;-63
2024/02/03 00:50:51;;;;;;;22.20;16.97;;;;;;;-0.28;73.05;94196.75;523834;28;1046;-63
2024/02/03 00:51:11;;;;;;;25.08;18.20;;;;;;;-0.28;72.91;94204.91;523849;28;1079;-62
2024/02/03 00:51:27;;;;;;;25.80;18.80;;;;;;;-0.27;72.75;94201.00;524017;28;935;-63
2024/02/03 00:51:42;;;;;;;22.93;18.27;;;;;;;-0.26;72.61;94204.47;523807;28;1158;-63
2024/02/03 00:51:58;;;;;;;23.10;17.83;;;;;;;-0.26;72.49;94199.03;523833;28;1125;-63
2024/02/03 00:52:13;;;;;;;23.33;17.77;;;;;;;-0.25;72.48;94205.94;523852;28;995;-63
2024/02/03 00:52:29;;;;;;;22.48;16.95;;;;;;;-0.28;72.48;94199.47;523880;28;1106;-63
2024/02/03 00:52:44;;;;;;;21.07;16.13;;;;;;;-0.53;72.40;94169.31;523695;28;1138;-62
2024/02/03 00:53:00;;;;;;;21.92;16.90;;;;;;;-0.33;72.20;94204.78;523898;28;1185;-63
2024/02/03 00:53:15;;;;;;;24.03;17.23;;;;;;;-0.36;72.74;94198.31;523852;28;1090;-63
2024/02/03 00:53:31;;;;;;;23.77;16.92;;;;;;;-0.36;72.79;94195.59;523890;28;1130;-63
2024/02/03 00:53:46;;;;;;;24.10;17.53;;;;;;;-0.35;72.71;94199.84;523866;28;1102;-63
2024/02/03 00:54:01;;;;;;;23.55;17.20;;;;;;;-0.33;72.66;94194.69;523849;28;1091;-63
2024/02/03 00:54:17;;;;;;;22.70;15.87;;;;;;;-0.34;73.08;94201.31;523782;28;1227;-62
2024/02/03 00:54:33;;;;;;;20.92;14.88;;;;;;;-0.33;72.84;94197.41;523803;28;1086;-63
2024/02/03 00:54:48;;;;;;;19.03;14.37;;;;;;;-0.33;72.87;94194.69;523781;28;1066;-63
2024/02/03 00:55:04;;;;;;;19.85;14.40;;;;;;;-0.31;72.79;94196.94;523968;28;1121;-63
2024/02/03 00:55:19;;;;;;;21.30;14.50;;;;;;;-0.31;72.55;94195.00;523781;28;992;-63
2024/02/03 00:55:35;;;;;;;19.27;13.93;;;;;;;-0.32;72.54;94196.19;523881;28;1169;-63
2024/02/03 00:55:50;;;;;;;21.23;14.18;;;;;;;-0.32;72.58;94198.91;523885;28;1122;-63
2024/02/03 00:56:06;;;;;;;23.30;14.77;;;;;;;-0.33;72.29;94200.13;523896;28;1090;-63
2024/02/03 00:56:21;;;;;;;22.15;15.25;;;;;;;-0.36;72.77;94198.31;523771;28;1141;-63
2024/02/03 00:56:37;;;;;;;21.27;15.37;;;;;;;-0.39;72.51;94196.53;523880;28;1138;-63
2024/02/03 00:56:53;;;;;;;27.98;16.05;;;;;;;-0.41;72.58;94195.50;523716;28;1161;-62
2024/02/03 00:57:08;;;;;;;29.58;16.80;;;;;;;-0.45;72.65;94194.91;523870;28;1200;-63
2024/02/03 00:57:24;;;;;;;25.97;17.23;;;;;;;-0.50;72.87;94196.31;523831;28;1181;-63
2024/02/03 00:57:40;;;;;;;25.20;17.42;;;;;;;-0.53;73.00;94199.16;523761;28;1106;-63
2024/02/03 00:57:55;;;;;;;21.63;16.88;;;;;;;-0.57;72.95;94193.91;523823;28;1150;-62
2024/02/03 00:58:11;;;;;;;21.87;17.13;;;;;;;-0.60;73.06;94197.53;523828;28;1208;-63
2024/02/03 00:58:26;;;;;;;23.05;17.23;;;;;;;-0.59;73.06;94198.28;523783;28;1074;-62
2024/02/03 00:58:42;;;;;;;24.83;17.10;;;;;;;-0.58;73.18;94199.78;523902;28;1138;-62
2024/02/03 00:58:57;;;;;;;24.83;16.98;;;;;;;-0.57;73.32;94191.19;523798;28;1118;-63
2024/02/03 00:59:13;;;;;;;23.90;16.37;;;;;;;-0.55;73.25;94191.50;524136;28;792;-63
2024/02/03 00:59:28;;;;;;;23.52;16.63;;;;;;;-0.53;73.40;94197.22;522088;28;809;-63
2024/02/03 00:59:45;;;;;;;22.70;16.77;;;;;;;-0.52;73.42;94192.53;523797;28;1075;-63
2024/02/03 01:00:02;;;;;;;22.63;16.85;;;;;;;-0.50;73.32;94199.00;522012;28;843;-63
2024/02/03 01:00:18;;;;;;;23.00;17.10;;;;;;;-0.48;73.17;94203.97;521878;28;1142;-63
2024/02/03 01:00:33;;;;;;;25.00;17.35;;;;;;;-0.49;73.07;94200.50;524125;28;944;-62
2024/02/03 01:00:49;;;;;;;24.20;17.23;;;;;;;-0.46;73.08;94201.53;524021;28;784;-63
2024/02/03 01:01:04;;;;;;;21.58;16.58;;;;;;;-0.45;72.90;94194.91;523853;28;1316;-63
2024/02/03 01:01:20;;;;;;;21.80;16.13;;;;;;;-0.44;73.02;94196.41;523877;28;1174;-63
2024/02/03 01:01:35;;;;;;;22.25;16.35;;;;;;;-0.44;72.83;94190.97;523919;28;1174;-62
2024/02/03 01:01:51;;;;;;;21.47;15.87;;;;;;;-0.43;72.78;94195.19;523830;28;1216;-63
2024/02/03 01:02:06;;;;;;;21.17;15.68;;;;;;;-0.43;72.88;94192.47;523807;28;1190;-63
2024/02/03 01:02:22;;;;;;;20.73;15.73;;;;;;;-0.50;72.69;94181.97;523876;28;1078;-63
2024/02/03 01:02:37;;;;;;;20.52;15.50;;;;;;;-0.44;72.78;94186.31;523802;28;1066;-63
2024/02/03 01:02:53;;;;;;;22.87;15.80;;;;;;;-0.43;72.82;94192.47;523597;28;1174;-63
2024/02/03 01:03:09;;;;;;;21.98;15.57;;;;;;;-0.47;72.86;94189.19;523723;28;1212;-63
2024/02/03 01:03:25;;;;;;;19.97;15.43;;;;;;;-0.47;72.81;94189.19;523721;28;1202;-62
2024/02/03 01:03:43;;;;;;;20.90;14.60;;;;;;;-0.46;72.80;94194.16;523641;28;1067;-63
2024/02/03 01:03:59;;;;;;;20.58;14.48;;;;;;;-0.44;73.00;94189.03;524525;28;1115;-63
2024/02/03 01:04:15;;;;;;;21.70;15.30;;;;;;;-0.43;73.11;94178.91;525753;28;1138;-63
2024/02/03 01:04:30;;;;;;;21.40;15.10;;;;;;;-0.43;73.07;94185.09;525829;28;1185;-63
2024/02/03 01:04:45;;;;;;;19.70;15.30;;;;;;;-0.42;73.10;94188.56;524525;28;1153;-63
2024/02/03 01:05:01;;;;;;;20.17;15.45;;;;;;;-0.41;72.96;94190.06;525777;28;1114;-62
2024/02/03 01:05:16;;;;;;;21.20;14.97;;;;;;;-0.41;73.22;94188.09;525754;28;1097;-63
2024/02/03 01:05:32;;;;;;;22.73;14.32;;;;;;;-0.39;73.09;94187.66;524557;28;1140;-63
2024/02/03 01:05:47;;;;;;;30.43;15.00;;;;;;;-0.40;72.92;94186.91;523597;28;1316;-63
2024/02/03 01:06:03;;;;;;;28.48;15.15;;;;;;;-0.63;73.24;94152.38;523740;28;1130;-63
2024/02/03 01:06:19;;;;;;;20.33;14.40;;;;;;;-0.42;73.07;94186.59;523597;28;1910;-63
2024/02/03 01:06:34;;;;;;;22.17;14.73;;;;;;;-0.42;73.12;94183.91;523744;28;1187;-63
2024/02/03 01:06:51;;;;;;;22.58;14.88;;;;;;;-0.44;72.95;94186.31;523640;28;1059;-63
2024/02/03 01:07:06;;;;;;;20.92;15.55;;;;;;;-0.44;73.09;94189.03;523728;28;1106;-63
2024/02/03 01:07:22;;;;;;;21.77;16.00;;;;;;;-0.44;73.06;94178.19;523621;28;1102;-63
2024/02/03 01:07:38;;;;;;;22.50;15.35;;;;;;;-0.44;73.18;94183.59;523789;28;1090;-62
2024/02/03 01:07:53;;;;;;;21.50;14.87;;;;;;;-0.44;73.10;94180.13;523613;28;1146;-62
2024/02/03 01:08:09;;;;;;;20.05;15.05;;;;;;;-0.44;72.78;94183.59;523648;28;1093;-62
2024/02/03 01:08:24;;;;;;;21.00;15.60;;;;;;;-0.44;73.02;94180.13;523763;28;1102;-62
2024/02/03 01:08:40;;;;;;;21.42;15.70;;;;;;;-0.44;73.09;94180.88;523728;28;1107;-62
2024/02/03 01:08:55;;;;;;;20.63;15.50;;;;;;;-0.43;72.81;94179.66;523676;28;1059;-63
2024/02/03 01:09:11;;;;;;;22.38;15.57;;;;;;;-0.43;72.98;94171.53;523688;28;1086;-62
2024/02/03 01:09:26;;;;;;;22.23;15.60;;;;;;;-0.44;72.76;94169.28;523701;28;1197;-62
2024/02/03 01:09:42;;;;;;;21.33;15.48;;;;;;;-0.43;72.66;94178.91;523641;28;1115;-62
2024/02/03 01:09:58;;;;;;;21.57;15.40;;;;;;;-0.43;72.58;94179.66;523560;28;1161;-62
2024/02/03 01:10:13;;;;;;;19.35;14.52;;;;;;;-0.43;72.42;94179.66;523675;28;1173;-63
2024/02/03 01:10:29;;;;;;;20.05;14.30;;;;;;;-0.43;72.42;94182.38;523707;28;1173;-63
2024/02/03 01:10:45;;;;;;;19.52;14.48;;;;;;;-0.43;72.31;94181.63;523441;28;1149;-63
2024/02/03 01:11:01;;;;;;;18.27;13.37;;;;;;;-0.44;72.03;94174.72;523617;28;1107;-62
2024/02/03 01:11:16;;;;;;;16.47;12.13;;;;;;;-0.46;72.12;94167.03;523514;28;1111;-62
2024/02/03 01:11:33;;;;;;;14.45;11.52;;;;;;;-0.48;72.48;94179.56;523589;28;1143;-63
2024/02/03 01:11:49;;;;;;;15.43;11.70;;;;;;;-0.48;72.25;94174.88;523435;28;1185;-63
2024/02/03 01:12:05;;;;;;;16.52;12.32;;;;;;;-0.48;72.11;94183.03;523604;28;1201;-62
2024/02/03 01:12:20;;;;;;;17.38;12.57;;;;;;;-0.49;72.03;94178.03;523508;28;1217;-63
2024/02/03 01:12:36;;;;;;;18.33;13.00;;;;;;;-0.49;71.89;94180.75;523610;28;1070;-62
2024/02/03 01:12:52;;;;;;;17.77;13.15;;;;;;;-0.50;72.02;94180.03;523669;28;1142;-62
2024/02/03 01:13:08;;;;;;;16.53;12.87;;;;;;;-0.51;71.87;94173.09;523711;28;1157;-63
2024/02/03 01:13:23;;;;;;;16.05;12.48;;;;;;;-0.55;71.77;94180.63;523713;28;1157;-63
2024/02/03 01:13:39;;;;;;;17.67;12.93;;;;;;;-0.61;71.82;94174.34;523674;28;1106;-62
2024/02/03 01:13:55;;;;;;;18.23;12.85;;;;;;;-0.65;72.00;94176.44;523678;28;1086;-63
2024/02/03 01:14:10;;;;;;;16.97;13.03;;;;;;;-0.67;72.05;94176.16;523942;28;800;-62
2024/02/03 01:14:26;;;;;;;19.25;13.55;;;;;;;-0.69;71.77;94170.44;521886;28;836;-62